Pagrindinis puslapis
METAR-TAF:

METAR-TAF

Oro uostai :

Kuveitas, Kuveitas

platuma: 29-13N, ilguma: 047-59E, Aukštis: 55 m

Dabartinis oras

Ataskaita buvo paskelbta 34 minutes, ne 00:00 UTC
Vėjas 4 kt iš Vakarų
Temperatūra 23°C
Drėgmė 57%
Slėgis 1012 hPa
Matomumas: 7000 m
Mažai debesys ne aukštis 4000 ft
Su prošvaistėmis ne aukštis 8000 ft

METAR: OKBK 250000Z 26004KT 7000 FEW040 BKN080 23/14 Q1012 NOSIG

Laikas: 03:34 (00:34 UTC)

Prognozė

Ataskaita buvo paskelbta 1 valandą ir 49 minutes, ne 22:45 UTC
Prognozė galioja nuo 25 metu 00 UTC su 26 metu 06 UTC
Vėjas 15 kt iš Pietų/Pietryčių su gūsio iki 30 kt
Matomumas: 7000 m
Mažai debesys ne aukštis 4000 ft
Su prošvaistėmis ne aukštis 10000 ft
Laikinai
nuo 25 metu 00 UTC su 25 metu 15 UTC
Matomumas: 2000 m
Mažai debesys ne aukštis 2500 ft, Liūtiniai kamuoliniai debesys.
perkūnija, lietus, Dulkes pustymas

TAF: OKBK 242245Z 2500/2606 16015G30KT 7000 FEW040 BKN100 TEMPO 2500/2515 2000 TSRA BLDU FEW025CB

Orai ataskaitas ir orų prognozės (METAR, TAF).

turimą stotys yra geltonos ir raudonos taškus žemėlapyje.

Perkelti pele per norėdami pamatyti stoties vardą.

Tada spustelėkite, norėdami matyti oro stebėjimo ir prognozės.

Norėdami pakeisti žemėlapį: spustelėkite ant žalios mygtukų su juodo kryžiaus žemyn,; žalią mygtuką su brūkšneliu, jei norite nutolinti; arba žalių rodyklių gretimoms žemėlapius.


METAR-TAF: